sensor_id;sensor_type;location;lat;lon;timestamp;temperature;humidity
8910;DHT22;4490;49.072;8.804;2024-02-21T00:02:05;8.70;99.90
8910;DHT22;4490;49.072;8.804;2024-02-21T00:04:30;8.80;99.90
8910;DHT22;4490;49.072;8.804;2024-02-21T00:06:56;8.80;99.90
8910;DHT22;4490;49.072;8.804;2024-02-21T00:09:21;8.80;99.90
8910;DHT22;4490;49.072;8.804;2024-02-21T00:11:47;8.80;99.90
8910;DHT22;4490;49.072;8.804;2024-02-21T00:14:13;8.90;99.90
8910;DHT22;4490;49.072;8.804;2024-02-21T00:16:38;8.90;99.90
8910;DHT22;4490;49.072;8.804;2024-02-21T00:19:04;8.90;99.90
8910;DHT22;4490;49.072;8.804;2024-02-21T00:21:30;8.90;99.90
8910;DHT22;4490;49.072;8.804;2024-02-21T00:23:55;8.90;99.90
8910;DHT22;4490;49.072;8.804;2024-02-21T00:26:21;8.90;99.90
8910;DHT22;4490;49.072;8.804;2024-02-21T00:28:46;8.90;99.90
8910;DHT22;4490;49.072;8.804;2024-02-21T00:31:12;8.90;99.90
8910;DHT22;4490;49.072;8.804;2024-02-21T00:33:38;9.00;99.90
8910;DHT22;4490;49.072;8.804;2024-02-21T00:36:04;9.00;99.90
8910;DHT22;4490;49.072;8.804;2024-02-21T00:38:29;9.00;99.90
8910;DHT22;4490;49.072;8.804;2024-02-21T00:40:55;9.00;99.90
8910;DHT22;4490;49.072;8.804;2024-02-21T00:43:20;9.00;99.90
8910;DHT22;4490;49.072;8.804;2024-02-21T00:45:49;9.00;99.90
8910;DHT22;4490;49.072;8.804;2024-02-21T00:48:15;9.00;99.90
8910;DHT22;4490;49.072;8.804;2024-02-21T00:50:40;9.00;99.90
8910;DHT22;4490;49.072;8.804;2024-02-21T00:53:06;9.00;99.90
8910;DHT22;4490;49.072;8.804;2024-02-21T00:55:31;9.10;99.90
8910;DHT22;4490;49.072;8.804;2024-02-21T00:57:57;9.10;99.90
8910;DHT22;4490;49.072;8.804;2024-02-21T01:00:23;9.10;99.80
8910;DHT22;4490;49.072;8.804;2024-02-21T01:02:48;9.10;99.70
8910;DHT22;4490;49.072;8.804;2024-02-21T01:05:14;9.10;99.60
8910;DHT22;4490;49.072;8.804;2024-02-21T01:07:39;9.10;99.50
8910;DHT22;4490;49.072;8.804;2024-02-21T01:10:06;9.10;99.40
8910;DHT22;4490;49.072;8.804;2024-02-21T01:12:31;9.20;99.30
8910;DHT22;4490;49.072;8.804;2024-02-21T01:14:57;9.20;99.10
8910;DHT22;4490;49.072;8.804;2024-02-21T01:17:23;9.20;99.10
8910;DHT22;4490;49.072;8.804;2024-02-21T01:19:48;9.20;99.20
8910;DHT22;4490;49.072;8.804;2024-02-21T01:22:14;9.20;99.20
8910;DHT22;4490;49.072;8.804;2024-02-21T01:24:41;9.20;99.40
8910;DHT22;4490;49.072;8.804;2024-02-21T01:27:07;9.20;99.30
8910;DHT22;4490;49.072;8.804;2024-02-21T01:29:32;9.20;99.40
8910;DHT22;4490;49.072;8.804;2024-02-21T01:31:58;9.20;99.30
8910;DHT22;4490;49.072;8.804;2024-02-21T01:34:23;9.20;99.50
8910;DHT22;4490;49.072;8.804;2024-02-21T01:36:49;9.20;99.90
8910;DHT22;4490;49.072;8.804;2024-02-21T01:39:15;9.10;99.90
8910;DHT22;4490;49.072;8.804;2024-02-21T01:41:40;9.10;99.90
8910;DHT22;4490;49.072;8.804;2024-02-21T01:44:06;9.10;99.90
8910;DHT22;4490;49.072;8.804;2024-02-21T01:46:32;9.00;99.90
8910;DHT22;4490;49.072;8.804;2024-02-21T01:48:58;9.00;99.90
8910;DHT22;4490;49.072;8.804;2024-02-21T01:51:24;9.00;99.90
8910;DHT22;4490;49.072;8.804;2024-02-21T01:53:51;9.00;99.90
8910;DHT22;4490;49.072;8.804;2024-02-21T01:56:17;9.00;99.90
8910;DHT22;4490;49.072;8.804;2024-02-21T01:58:43;9.00;99.90
8910;DHT22;4490;49.072;8.804;2024-02-21T02:01:10;9.00;99.90
8910;DHT22;4490;49.072;8.804;2024-02-21T02:03:35;9.00;99.90
8910;DHT22;4490;49.072;8.804;2024-02-21T02:06:02;9.00;99.90
8910;DHT22;4490;49.072;8.804;2024-02-21T02:08:28;9.00;99.90
8910;DHT22;4490;49.072;8.804;2024-02-21T02:10:53;9.00;99.90
8910;DHT22;4490;49.072;8.804;2024-02-21T02:13:19;9.00;99.90
8910;DHT22;4490;49.072;8.804;2024-02-21T02:15:46;9.00;99.90
8910;DHT22;4490;49.072;8.804;2024-02-21T02:18:13;9.10;99.90
8910;DHT22;4490;49.072;8.804;2024-02-21T02:20:40;9.10;99.90
8910;DHT22;4490;49.072;8.804;2024-02-21T02:23:31;9.00;99.90
8910;DHT22;4490;49.072;8.804;2024-02-21T02:25:59;9.00;99.90
8910;DHT22;4490;49.072;8.804;2024-02-21T02:28:26;9.00;99.90
8910;DHT22;4490;49.072;8.804;2024-02-21T02:30:52;8.90;99.90
8910;DHT22;4490;49.072;8.804;2024-02-21T02:33:18;8.90;99.90
8910;DHT22;4490;49.072;8.804;2024-02-21T02:35:44;8.90;99.90
8910;DHT22;4490;49.072;8.804;2024-02-21T02:38:10;8.90;99.90
8910;DHT22;4490;49.072;8.804;2024-02-21T02:40:38;8.80;99.90
8910;DHT22;4490;49.072;8.804;2024-02-21T02:43:04;8.80;99.90
8910;DHT22;4490;49.072;8.804;2024-02-21T02:45:29;8.80;99.90
8910;DHT22;4490;49.072;8.804;2024-02-21T02:47:58;8.80;99.90
8910;DHT22;4490;49.072;8.804;2024-02-21T02:50:24;8.80;99.90
8910;DHT22;4490;49.072;8.804;2024-02-21T02:52:49;8.80;99.90
8910;DHT22;4490;49.072;8.804;2024-02-21T02:55:15;8.70;99.90
8910;DHT22;4490;49.072;8.804;2024-02-21T02:57:41;8.70;99.90
8910;DHT22;4490;49.072;8.804;2024-02-21T03:00:08;8.70;99.90
8910;DHT22;4490;49.072;8.804;2024-02-21T03:02:35;8.70;99.90
8910;DHT22;4490;49.072;8.804;2024-02-21T03:05:00;8.70;99.90
8910;DHT22;4490;49.072;8.804;2024-02-21T03:07:26;8.70;99.90
8910;DHT22;4490;49.072;8.804;2024-02-21T03:09:52;8.70;99.90
8910;DHT22;4490;49.072;8.804;2024-02-21T03:12:18;8.60;99.90
8910;DHT22;4490;49.072;8.804;2024-02-21T03:14:50;8.70;99.90
8910;DHT22;4490;49.072;8.804;2024-02-21T03:17:16;8.70;99.90
8910;DHT22;4490;49.072;8.804;2024-02-21T03:19:41;8.60;99.90
8910;DHT22;4490;49.072;8.804;2024-02-21T03:22:07;8.60;99.90
8910;DHT22;4490;49.072;8.804;2024-02-21T03:24:33;8.60;99.90
8910;DHT22;4490;49.072;8.804;2024-02-21T03:26:59;8.60;99.90
8910;DHT22;4490;49.072;8.804;2024-02-21T03:29:25;8.60;99.90
8910;DHT22;4490;49.072;8.804;2024-02-21T03:31:51;8.60;99.90
8910;DHT22;4490;49.072;8.804;2024-02-21T03:34:16;8.60;99.90
8910;DHT22;4490;49.072;8.804;2024-02-21T03:36:42;8.60;99.90
8910;DHT22;4490;49.072;8.804;2024-02-21T03:39:08;8.60;99.90
8910;DHT22;4490;49.072;8.804;2024-02-21T03:41:35;8.70;99.90
8910;DHT22;4490;49.072;8.804;2024-02-21T03:44:01;8.70;99.90
8910;DHT22;4490;49.072;8.804;2024-02-21T03:46:27;8.70;99.90
8910;DHT22;4490;49.072;8.804;2024-02-21T03:48:53;8.70;99.90
8910;DHT22;4490;49.072;8.804;2024-02-21T03:51:18;8.70;99.90
8910;DHT22;4490;49.072;8.804;2024-02-21T03:53:44;8.70;99.90
8910;DHT22;4490;49.072;8.804;2024-02-21T03:56:10;8.70;99.90
8910;DHT22;4490;49.072;8.804;2024-02-21T03:58:35;8.70;99.90
8910;DHT22;4490;49.072;8.804;2024-02-21T04:01:01;8.60;99.90
8910;DHT22;4490;49.072;8.804;2024-02-21T04:03:27;8.60;99.90
8910;DHT22;4490;49.072;8.804;2024-02-21T04:05:53;8.60;99.90
8910;DHT22;4490;49.072;8.804;2024-02-21T04:08:19;8.60;99.90
8910;DHT22;4490;49.072;8.804;2024-02-21T04:10:44;8.60;99.90
8910;DHT22;4490;49.072;8.804;2024-02-21T04:13:10;8.60;99.90
8910;DHT22;4490;49.072;8.804;2024-02-21T04:15:36;8.50;99.90
8910;DHT22;4490;49.072;8.804;2024-02-21T04:18:02;8.50;99.90
8910;DHT22;4490;49.072;8.804;2024-02-21T04:20:28;8.40;99.90
8910;DHT22;4490;49.072;8.804;2024-02-21T04:22:54;8.50;99.90
8910;DHT22;4490;49.072;8.804;2024-02-21T04:25:19;8.40;99.90
8910;DHT22;4490;49.072;8.804;2024-02-21T04:27:46;8.40;99.90
8910;DHT22;4490;49.072;8.804;2024-02-21T04:30:12;8.40;99.90
8910;DHT22;4490;49.072;8.804;2024-02-21T04:32:37;8.30;99.90
8910;DHT22;4490;49.072;8.804;2024-02-21T04:35:03;8.30;99.90
8910;DHT22;4490;49.072;8.804;2024-02-21T04:37:30;8.20;99.90
8910;DHT22;4490;49.072;8.804;2024-02-21T04:39:56;8.20;99.90
8910;DHT22;4490;49.072;8.804;2024-02-21T04:42:22;8.20;99.90
8910;DHT22;4490;49.072;8.804;2024-02-21T04:44:47;8.10;99.90
8910;DHT22;4490;49.072;8.804;2024-02-21T04:47:13;8.10;99.90
8910;DHT22;4490;49.072;8.804;2024-02-21T04:49:39;8.10;99.90
8910;DHT22;4490;49.072;8.804;2024-02-21T04:52:05;8.10;99.90
8910;DHT22;4490;49.072;8.804;2024-02-21T04:54:30;8.10;99.90
8910;DHT22;4490;49.072;8.804;2024-02-21T04:56:56;8.10;99.90
8910;DHT22;4490;49.072;8.804;2024-02-21T04:59:21;8.00;99.90
8910;DHT22;4490;49.072;8.804;2024-02-21T05:01:47;8.00;99.90
8910;DHT22;4490;49.072;8.804;2024-02-21T05:04:13;8.00;99.90
8910;DHT22;4490;49.072;8.804;2024-02-21T05:06:39;7.90;99.90
8910;DHT22;4490;49.072;8.804;2024-02-21T05:09:05;7.90;99.90
8910;DHT22;4490;49.072;8.804;2024-02-21T05:11:31;7.80;99.90
8910;DHT22;4490;49.072;8.804;2024-02-21T05:13:57;7.80;99.90
8910;DHT22;4490;49.072;8.804;2024-02-21T05:16:23;7.80;99.90
8910;DHT22;4490;49.072;8.804;2024-02-21T05:18:48;7.80;99.90
8910;DHT22;4490;49.072;8.804;2024-02-21T05:21:14;7.70;99.90
8910;DHT22;4490;49.072;8.804;2024-02-21T05:23:40;7.70;99.90
8910;DHT22;4490;49.072;8.804;2024-02-21T05:26:06;7.70;99.90
8910;DHT22;4490;49.072;8.804;2024-02-21T05:28:32;7.60;99.90
8910;DHT22;4490;49.072;8.804;2024-02-21T05:30:57;7.60;99.90
8910;DHT22;4490;49.072;8.804;2024-02-21T05:33:24;7.50;99.90
8910;DHT22;4490;49.072;8.804;2024-02-21T05:35:49;7.50;99.90
8910;DHT22;4490;49.072;8.804;2024-02-21T05:38:15;7.40;99.90
8910;DHT22;4490;49.072;8.804;2024-02-21T05:40:41;7.40;99.90
8910;DHT22;4490;49.072;8.804;2024-02-21T05:43:08;7.40;99.90
8910;DHT22;4490;49.072;8.804;2024-02-21T05:45:34;7.30;99.90
8910;DHT22;4490;49.072;8.804;2024-02-21T05:48:00;7.20;99.90
8910;DHT22;4490;49.072;8.804;2024-02-21T05:50:26;7.20;99.90
8910;DHT22;4490;49.072;8.804;2024-02-21T05:52:53;7.10;99.90
8910;DHT22;4490;49.072;8.804;2024-02-21T05:55:19;7.10;99.90
8910;DHT22;4490;49.072;8.804;2024-02-21T05:57:44;7.10;99.90
8910;DHT22;4490;49.072;8.804;2024-02-21T06:00:10;7.00;99.90
8910;DHT22;4490;49.072;8.804;2024-02-21T06:02:36;6.90;99.90
8910;DHT22;4490;49.072;8.804;2024-02-21T06:05:02;6.90;99.90
8910;DHT22;4490;49.072;8.804;2024-02-21T06:07:27;6.80;99.90
8910;DHT22;4490;49.072;8.804;2024-02-21T06:09:53;6.80;99.90
8910;DHT22;4490;49.072;8.804;2024-02-21T06:12:19;6.70;99.90
8910;DHT22;4490;49.072;8.804;2024-02-21T06:14:45;6.70;99.90
8910;DHT22;4490;49.072;8.804;2024-02-21T06:17:10;6.70;99.90
8910;DHT22;4490;49.072;8.804;2024-02-21T06:19:40;6.60;99.90
8910;DHT22;4490;49.072;8.804;2024-02-21T06:22:06;6.60;99.90
8910;DHT22;4490;49.072;8.804;2024-02-21T06:24:34;6.50;99.90
8910;DHT22;4490;49.072;8.804;2024-02-21T06:26:59;6.50;99.90
8910;DHT22;4490;49.072;8.804;2024-02-21T06:29:25;6.40;99.90
8910;DHT22;4490;49.072;8.804;2024-02-21T06:31:50;6.40;99.90
8910;DHT22;4490;49.072;8.804;2024-02-21T06:34:16;6.40;99.90
8910;DHT22;4490;49.072;8.804;2024-02-21T06:36:42;6.40;99.90
8910;DHT22;4490;49.072;8.804;2024-02-21T06:39:08;6.40;99.90
8910;DHT22;4490;49.072;8.804;2024-02-21T06:41:33;6.40;99.90
8910;DHT22;4490;49.072;8.804;2024-02-21T06:44:00;6.30;99.90
8910;DHT22;4490;49.072;8.804;2024-02-21T06:46:25;6.30;99.90
8910;DHT22;4490;49.072;8.804;2024-02-21T06:48:52;6.30;99.90
8910;DHT22;4490;49.072;8.804;2024-02-21T06:51:18;6.30;99.90
8910;DHT22;4490;49.072;8.804;2024-02-21T06:53:44;6.30;99.90
8910;DHT22;4490;49.072;8.804;2024-02-21T06:56:10;6.30;99.90
8910;DHT22;4490;49.072;8.804;2024-02-21T06:58:36;6.30;99.90
8910;DHT22;4490;49.072;8.804;2024-02-21T07:01:02;6.30;99.90
8910;DHT22;4490;49.072;8.804;2024-02-21T07:03:27;6.30;99.90
8910;DHT22;4490;49.072;8.804;2024-02-21T07:05:53;6.30;99.90
8910;DHT22;4490;49.072;8.804;2024-02-21T07:08:19;6.40;99.90
8910;DHT22;4490;49.072;8.804;2024-02-21T07:10:45;6.50;99.90
8910;DHT22;4490;49.072;8.804;2024-02-21T07:13:10;6.60;99.90
8910;DHT22;4490;49.072;8.804;2024-02-21T07:15:36;6.60;99.90
8910;DHT22;4490;49.072;8.804;2024-02-21T07:18:03;6.70;99.90
8910;DHT22;4490;49.072;8.804;2024-02-21T07:20:29;6.70;99.90
8910;DHT22;4490;49.072;8.804;2024-02-21T07:22:55;6.80;99.90
8910;DHT22;4490;49.072;8.804;2024-02-21T07:25:20;6.80;99.90
8910;DHT22;4490;49.072;8.804;2024-02-21T07:27:46;6.80;99.90
8910;DHT22;4490;49.072;8.804;2024-02-21T07:30:12;6.90;99.90
8910;DHT22;4490;49.072;8.804;2024-02-21T07:32:38;7.00;99.90
8910;DHT22;4490;49.072;8.804;2024-02-21T07:35:04;7.00;99.90
8910;DHT22;4490;49.072;8.804;2024-02-21T07:37:31;7.10;99.90
8910;DHT22;4490;49.072;8.804;2024-02-21T07:39:56;7.20;99.90
8910;DHT22;4490;49.072;8.804;2024-02-21T07:42:22;7.30;99.90
8910;DHT22;4490;49.072;8.804;2024-02-21T07:44:48;7.40;99.90
8910;DHT22;4490;49.072;8.804;2024-02-21T07:47:13;7.60;99.90
8910;DHT22;4490;49.072;8.804;2024-02-21T07:49:44;7.80;99.90
8910;DHT22;4490;49.072;8.804;2024-02-21T07:52:10;8.00;99.90
8910;DHT22;4490;49.072;8.804;2024-02-21T07:54:36;8.20;99.90
8910;DHT22;4490;49.072;8.804;2024-02-21T07:57:02;8.40;99.90
8910;DHT22;4490;49.072;8.804;2024-02-21T07:59:29;8.70;99.90
8910;DHT22;4490;49.072;8.804;2024-02-21T08:01:58;8.90;99.90
8910;DHT22;4490;49.072;8.804;2024-02-21T08:04:24;9.10;99.90
8910;DHT22;4490;49.072;8.804;2024-02-21T08:06:53;9.30;99.90
8910;DHT22;4490;49.072;8.804;2024-02-21T08:09:21;9.40;99.90
8910;DHT22;4490;49.072;8.804;2024-02-21T08:11:47;9.50;99.90
8910;DHT22;4490;49.072;8.804;2024-02-21T08:14:12;9.70;99.90
8910;DHT22;4490;49.072;8.804;2024-02-21T08:16:41;9.80;99.90
8910;DHT22;4490;49.072;8.804;2024-02-21T08:19:07;9.90;99.90
8910;DHT22;4490;49.072;8.804;2024-02-21T08:21:33;10.10;99.90
8910;DHT22;4490;49.072;8.804;2024-02-21T08:23:58;10.20;99.90
8910;DHT22;4490;49.072;8.804;2024-02-21T08:26:24;10.30;99.90
8910;DHT22;4490;49.072;8.804;2024-02-21T08:28:53;10.30;99.90
8910;DHT22;4490;49.072;8.804;2024-02-21T08:31:19;10.40;99.90
8910;DHT22;4490;49.072;8.804;2024-02-21T08:33:45;10.40;99.90
8910;DHT22;4490;49.072;8.804;2024-02-21T08:36:20;10.40;99.90
8910;DHT22;4490;49.072;8.804;2024-02-21T08:38:46;10.40;99.90
8910;DHT22;4490;49.072;8.804;2024-02-21T08:41:12;10.30;99.90
8910;DHT22;4490;49.072;8.804;2024-02-21T08:43:38;10.30;99.90
8910;DHT22;4490;49.072;8.804;2024-02-21T08:46:04;10.20;99.90
8910;DHT22;4490;49.072;8.804;2024-02-21T08:48:30;10.20;99.90
8910;DHT22;4490;49.072;8.804;2024-02-21T08:50:56;10.20;99.90
8910;DHT22;4490;49.072;8.804;2024-02-21T08:53:21;10.10;99.90
8910;DHT22;4490;49.072;8.804;2024-02-21T08:55:47;10.10;99.90
8910;DHT22;4490;49.072;8.804;2024-02-21T08:58:13;10.00;99.90
8910;DHT22;4490;49.072;8.804;2024-02-21T09:00:40;10.00;99.90
8910;DHT22;4490;49.072;8.804;2024-02-21T09:03:05;10.00;99.90
8910;DHT22;4490;49.072;8.804;2024-02-21T09:05:31;10.10;99.90
8910;DHT22;4490;49.072;8.804;2024-02-21T09:07:57;10.10;99.90
8910;DHT22;4490;49.072;8.804;2024-02-21T09:10:22;10.10;99.90
8910;DHT22;4490;49.072;8.804;2024-02-21T09:12:48;10.10;99.90
8910;DHT22;4490;49.072;8.804;2024-02-21T09:15:15;10.20;99.60
8910;DHT22;4490;49.072;8.804;2024-02-21T09:17:48;10.20;98.90
8910;DHT22;4490;49.072;8.804;2024-02-21T09:20:14;10.30;98.40
8910;DHT22;4490;49.072;8.804;2024-02-21T09:22:41;10.30;97.70
8910;DHT22;4490;49.072;8.804;2024-02-21T09:25:08;10.40;97.00
8910;DHT22;4490;49.072;8.804;2024-02-21T09:27:35;10.40;96.30
8910;DHT22;4490;49.072;8.804;2024-02-21T09:30:01;10.50;95.70
8910;DHT22;4490;49.072;8.804;2024-02-21T09:32:27;10.50;94.90
8910;DHT22;4490;49.072;8.804;2024-02-21T09:34:52;10.50;94.40
8910;DHT22;4490;49.072;8.804;2024-02-21T09:37:19;10.60;94.60
8910;DHT22;4490;49.072;8.804;2024-02-21T09:39:45;10.60;94.50
8910;DHT22;4490;49.072;8.804;2024-02-21T09:42:14;10.70;94.10
8910;DHT22;4490;49.072;8.804;2024-02-21T09:44:43;10.70;94.00
8910;DHT22;4490;49.072;8.804;2024-02-21T09:47:20;10.70;93.80
8910;DHT22;4490;49.072;8.804;2024-02-21T09:49:47;10.80;93.60
8910;DHT22;4490;49.072;8.804;2024-02-21T09:52:15;10.80;93.30
8910;DHT22;4490;49.072;8.804;2024-02-21T09:54:41;10.90;93.40
8910;DHT22;4490;49.072;8.804;2024-02-21T09:57:10;10.90;93.40
8910;DHT22;4490;49.072;8.804;2024-02-21T09:59:36;11.00;92.90
8910;DHT22;4490;49.072;8.804;2024-02-21T10:02:02;11.10;92.80
8910;DHT22;4490;49.072;8.804;2024-02-21T10:04:29;11.10;92.50
8910;DHT22;4490;49.072;8.804;2024-02-21T10:06:54;11.20;92.60
8910;DHT22;4490;49.072;8.804;2024-02-21T10:09:25;11.20;92.50
8910;DHT22;4490;49.072;8.804;2024-02-21T10:11:53;11.30;92.30
8910;DHT22;4490;49.072;8.804;2024-02-21T10:14:18;11.30;91.70
8910;DHT22;4490;49.072;8.804;2024-02-21T10:16:57;11.40;91.90
8910;DHT22;4490;49.072;8.804;2024-02-21T10:19:26;11.40;91.80
8910;DHT22;4490;49.072;8.804;2024-02-21T10:22:06;11.50;91.20
8910;DHT22;4490;49.072;8.804;2024-02-21T10:24:33;11.60;90.80
8910;DHT22;4490;49.072;8.804;2024-02-21T10:29:25;11.70;90.50
8910;DHT22;4490;49.072;8.804;2024-02-21T10:31:51;11.70;90.40
8910;DHT22;4490;49.072;8.804;2024-02-21T10:34:17;11.70;90.20
8910;DHT22;4490;49.072;8.804;2024-02-21T10:36:43;11.70;90.10
8910;DHT22;4490;49.072;8.804;2024-02-21T10:39:09;11.80;90.00
8910;DHT22;4490;49.072;8.804;2024-02-21T10:41:35;11.80;90.10
8910;DHT22;4490;49.072;8.804;2024-02-21T10:44:05;11.90;89.50
8910;DHT22;4490;49.072;8.804;2024-02-21T10:46:32;11.90;89.30
8910;DHT22;4490;49.072;8.804;2024-02-21T10:49:06;12.00;89.70
8910;DHT22;4490;49.072;8.804;2024-02-21T10:51:33;12.00;89.20
8910;DHT22;4490;49.072;8.804;2024-02-21T10:56:45;12.20;87.90
8910;DHT22;4490;49.072;8.804;2024-02-21T10:59:13;12.20;87.50
8910;DHT22;4490;49.072;8.804;2024-02-21T11:01:39;12.20;87.50
8910;DHT22;4490;49.072;8.804;2024-02-21T11:04:06;12.30;87.50
8910;DHT22;4490;49.072;8.804;2024-02-21T11:06:34;12.30;87.70
8910;DHT22;4490;49.072;8.804;2024-02-21T11:09:05;12.30;86.90
8910;DHT22;4490;49.072;8.804;2024-02-21T11:11:35;12.40;86.80
8910;DHT22;4490;49.072;8.804;2024-02-21T11:16:41;12.50;87.50
8910;DHT22;4490;49.072;8.804;2024-02-21T11:19:22;12.60;87.30
8910;DHT22;4490;49.072;8.804;2024-02-21T11:21:49;12.70;87.70
8910;DHT22;4490;49.072;8.804;2024-02-21T11:24:31;12.70;87.10
8910;DHT22;4490;49.072;8.804;2024-02-21T11:27:19;12.80;87.10
8910;DHT22;4490;49.072;8.804;2024-02-21T11:29:56;12.80;87.10
8910;DHT22;4490;49.072;8.804;2024-02-21T11:32:22;12.80;87.90
8910;DHT22;4490;49.072;8.804;2024-02-21T11:35:01;12.80;87.30
8910;DHT22;4490;49.072;8.804;2024-02-21T11:37:30;12.90;87.60
8910;DHT22;4490;49.072;8.804;2024-02-21T11:39:58;12.90;86.70
8910;DHT22;4490;49.072;8.804;2024-02-21T11:42:25;12.90;86.70
8910;DHT22;4490;49.072;8.804;2024-02-21T11:44:52;13.00;86.50
8910;DHT22;4490;49.072;8.804;2024-02-21T11:47:18;13.00;86.70
8910;DHT22;4490;49.072;8.804;2024-02-21T11:49:48;13.10;86.50
8910;DHT22;4490;49.072;8.804;2024-02-21T11:52:21;13.10;86.70
8910;DHT22;4490;49.072;8.804;2024-02-21T11:54:50;13.20;87.20
8910;DHT22;4490;49.072;8.804;2024-02-21T11:57:16;13.20;86.70
8910;DHT22;4490;49.072;8.804;2024-02-21T11:59:42;13.30;86.70
8910;DHT22;4490;49.072;8.804;2024-02-21T12:02:10;13.40;86.00
8910;DHT22;4490;49.072;8.804;2024-02-21T12:04:36;13.40;86.80
8910;DHT22;4490;49.072;8.804;2024-02-21T12:07:02;13.40;86.60
8910;DHT22;4490;49.072;8.804;2024-02-21T12:09:30;13.50;86.20
8910;DHT22;4490;49.072;8.804;2024-02-21T12:12:00;13.50;85.60
8910;DHT22;4490;49.072;8.804;2024-02-21T12:14:27;13.60;85.30
8910;DHT22;4490;49.072;8.804;2024-02-21T12:16:54;13.60;84.30
8910;DHT22;4490;49.072;8.804;2024-02-21T12:19:20;13.60;83.80
8910;DHT22;4490;49.072;8.804;2024-02-21T12:21:48;13.60;84.40
8910;DHT22;4490;49.072;8.804;2024-02-21T12:24:16;13.70;85.00
8910;DHT22;4490;49.072;8.804;2024-02-21T12:26:42;13.80;84.50
8910;DHT22;4490;49.072;8.804;2024-02-21T12:29:08;13.80;84.50
8910;DHT22;4490;49.072;8.804;2024-02-21T12:31:37;13.80;84.20
8910;DHT22;4490;49.072;8.804;2024-02-21T12:34:04;13.80;84.70
8910;DHT22;4490;49.072;8.804;2024-02-21T12:36:33;13.80;82.80
8910;DHT22;4490;49.072;8.804;2024-02-21T12:38:59;13.80;81.90
8910;DHT22;4490;49.072;8.804;2024-02-21T12:41:25;13.80;81.70
8910;DHT22;4490;49.072;8.804;2024-02-21T12:43:52;13.80;80.60
8910;DHT22;4490;49.072;8.804;2024-02-21T12:46:18;13.80;79.90
8910;DHT22;4490;49.072;8.804;2024-02-21T12:48:44;13.80;80.00
8910;DHT22;4490;49.072;8.804;2024-02-21T12:51:09;13.80;80.50
8910;DHT22;4490;49.072;8.804;2024-02-21T12:53:35;13.80;80.80
8910;DHT22;4490;49.072;8.804;2024-02-21T12:56:01;13.80;81.10
8910;DHT22;4490;49.072;8.804;2024-02-21T12:58:26;13.80;81.40
8910;DHT22;4490;49.072;8.804;2024-02-21T13:00:52;13.80;80.30
8910;DHT22;4490;49.072;8.804;2024-02-21T13:03:18;13.70;80.40
8910;DHT22;4490;49.072;8.804;2024-02-21T13:05:44;13.80;79.20
8910;DHT22;4490;49.072;8.804;2024-02-21T13:08:09;13.80;79.60
8910;DHT22;4490;49.072;8.804;2024-02-21T13:10:35;13.70;80.40
8910;DHT22;4490;49.072;8.804;2024-02-21T13:13:01;13.80;80.20
8910;DHT22;4490;49.072;8.804;2024-02-21T13:15:27;13.80;80.00
8910;DHT22;4490;49.072;8.804;2024-02-21T13:17:55;13.80;80.50
8910;DHT22;4490;49.072;8.804;2024-02-21T13:20:20;13.80;80.30
8910;DHT22;4490;49.072;8.804;2024-02-21T13:22:46;13.80;79.60
8910;DHT22;4490;49.072;8.804;2024-02-21T13:25:12;13.80;79.60
8910;DHT22;4490;49.072;8.804;2024-02-21T13:27:43;13.80;79.20
8910;DHT22;4490;49.072;8.804;2024-02-21T13:30:10;13.80;78.60
8910;DHT22;4490;49.072;8.804;2024-02-21T13:32:35;13.90;78.60
8910;DHT22;4490;49.072;8.804;2024-02-21T13:35:01;13.90;77.90
8910;DHT22;4490;49.072;8.804;2024-02-21T13:37:28;13.80;78.00
8910;DHT22;4490;49.072;8.804;2024-02-21T13:39:54;13.80;77.80
8910;DHT22;4490;49.072;8.804;2024-02-21T13:42:20;13.80;79.10
8910;DHT22;4490;49.072;8.804;2024-02-21T13:44:46;13.70;79.50
8910;DHT22;4490;49.072;8.804;2024-02-21T13:47:15;13.70;79.00
8910;DHT22;4490;49.072;8.804;2024-02-21T13:49:41;13.70;79.00
8910;DHT22;4490;49.072;8.804;2024-02-21T13:52:07;13.70;79.20
8910;DHT22;4490;49.072;8.804;2024-02-21T13:54:34;13.70;78.10
8910;DHT22;4490;49.072;8.804;2024-02-21T13:57:00;13.70;77.30
8910;DHT22;4490;49.072;8.804;2024-02-21T13:59:27;13.70;78.10
8910;DHT22;4490;49.072;8.804;2024-02-21T14:01:53;13.70;78.60
8910;DHT22;4490;49.072;8.804;2024-02-21T14:04:19;13.70;79.20
8910;DHT22;4490;49.072;8.804;2024-02-21T14:06:45;13.70;80.10
8910;DHT22;4490;49.072;8.804;2024-02-21T14:09:12;13.60;80.10
8910;DHT22;4490;49.072;8.804;2024-02-21T14:11:38;13.60;80.50
8910;DHT22;4490;49.072;8.804;2024-02-21T14:14:05;13.60;79.20
8910;DHT22;4490;49.072;8.804;2024-02-21T14:16:31;13.60;79.10
8910;DHT22;4490;49.072;8.804;2024-02-21T14:18:56;13.60;79.20
8910;DHT22;4490;49.072;8.804;2024-02-21T14:21:22;13.50;79.40
8910;DHT22;4490;49.072;8.804;2024-02-21T14:23:48;13.50;80.70
8910;DHT22;4490;49.072;8.804;2024-02-21T14:26:13;13.50;80.00
8910;DHT22;4490;49.072;8.804;2024-02-21T14:28:40;13.50;80.00
8910;DHT22;4490;49.072;8.804;2024-02-21T14:31:07;13.50;79.80
8910;DHT22;4490;49.072;8.804;2024-02-21T14:33:35;13.60;80.00
8910;DHT22;4490;49.072;8.804;2024-02-21T14:36:01;13.60;80.60
8910;DHT22;4490;49.072;8.804;2024-02-21T14:38:28;13.60;80.80
8910;DHT22;4490;49.072;8.804;2024-02-21T14:40:53;13.60;79.50
8910;DHT22;4490;49.072;8.804;2024-02-21T14:43:19;13.50;80.00
8910;DHT22;4490;49.072;8.804;2024-02-21T14:45:47;13.50;79.90
8910;DHT22;4490;49.072;8.804;2024-02-21T14:48:13;13.50;80.50
8910;DHT22;4490;49.072;8.804;2024-02-21T14:50:39;13.50;80.00
8910;DHT22;4490;49.072;8.804;2024-02-21T14:53:05;13.50;79.60
8910;DHT22;4490;49.072;8.804;2024-02-21T14:55:30;13.50;80.60
8910;DHT22;4490;49.072;8.804;2024-02-21T14:57:56;13.50;80.10
8910;DHT22;4490;49.072;8.804;2024-02-21T15:00:22;13.50;80.30
8910;DHT22;4490;49.072;8.804;2024-02-21T15:02:55;13.50;80.20
8910;DHT22;4490;49.072;8.804;2024-02-21T15:05:21;13.50;79.90
8910;DHT22;4490;49.072;8.804;2024-02-21T15:07:47;13.40;79.80
8910;DHT22;4490;49.072;8.804;2024-02-21T15:10:12;13.40;80.20
8910;DHT22;4490;49.072;8.804;2024-02-21T15:12:38;13.40;80.50
8910;DHT22;4490;49.072;8.804;2024-02-21T15:15:04;13.40;80.80
8910;DHT22;4490;49.072;8.804;2024-02-21T15:17:29;13.40;81.40
8910;DHT22;4490;49.072;8.804;2024-02-21T15:19:55;13.40;81.90
8910;DHT22;4490;49.072;8.804;2024-02-21T15:22:21;13.50;82.10
8910;DHT22;4490;49.072;8.804;2024-02-21T15:24:48;13.40;82.00
8910;DHT22;4490;49.072;8.804;2024-02-21T15:27:14;13.50;82.30
8910;DHT22;4490;49.072;8.804;2024-02-21T15:29:40;13.50;82.50
8910;DHT22;4490;49.072;8.804;2024-02-21T15:32:06;13.50;82.60
8910;DHT22;4490;49.072;8.804;2024-02-21T15:34:32;13.40;82.60
8910;DHT22;4490;49.072;8.804;2024-02-21T15:36:57;13.40;83.10
8910;DHT22;4490;49.072;8.804;2024-02-21T15:39:23;13.40;83.40
8910;DHT22;4490;49.072;8.804;2024-02-21T15:41:53;13.40;83.50
8910;DHT22;4490;49.072;8.804;2024-02-21T15:44:19;13.40;83.90
8910;DHT22;4490;49.072;8.804;2024-02-21T15:46:46;13.30;84.20
8910;DHT22;4490;49.072;8.804;2024-02-21T15:49:12;13.30;84.50
8910;DHT22;4490;49.072;8.804;2024-02-21T15:51:38;13.30;84.50
8910;DHT22;4490;49.072;8.804;2024-02-21T15:54:06;13.20;84.60
8910;DHT22;4490;49.072;8.804;2024-02-21T15:56:34;13.20;85.10
8910;DHT22;4490;49.072;8.804;2024-02-21T15:59:00;13.10;85.20
8910;DHT22;4490;49.072;8.804;2024-02-21T16:01:25;13.10;85.40
8910;DHT22;4490;49.072;8.804;2024-02-21T16:03:51;13.00;85.80
8910;DHT22;4490;49.072;8.804;2024-02-21T16:06:21;13.00;86.60
8910;DHT22;4490;49.072;8.804;2024-02-21T16:08:46;13.00;85.80
8910;DHT22;4490;49.072;8.804;2024-02-21T16:11:16;12.90;85.30
8910;DHT22;4490;49.072;8.804;2024-02-21T16:13:42;12.80;85.30